Time;durP1;ratioP1;P1;durP2;ratioP2;P2;SDS_P1;SDS_P2;PMS_P1;PMS_P2;Temp;Humidity;BMP_temperature;BMP_pressure;BME280_temperature;BME280_humidity;BME280_pressure;Samples;Min_cycle;Max_cycle;Signal;HPM_P1;HPM_P2
2023/10/25 00:01:26;;;;;;;76.80;68.90;;;9.30;99.90;;;;;;5035351;28;20287;-78
2023/10/25 00:03:52;;;;;;;74.27;65.70;;;9.30;99.90;;;;;;5035072;28;20271;-78
2023/10/25 00:06:18;;;;;;;74.43;66.47;;;9.30;99.90;;;;;;5035011;28;20407;-78
2023/10/25 00:08:44;;;;;;;69.10;60.00;;;9.40;99.90;;;;;;5017003;28;20174;-78
2023/10/25 00:11:10;;;;;;;69.80;57.88;;;9.40;99.90;;;;;;5034758;28;20235;-78
2023/10/25 00:13:36;;;;;;;72.28;64.05;;;9.40;99.90;;;;;;5034806;28;20186;-78
2023/10/25 00:16:02;;;;;;;80.37;68.63;;;9.40;99.90;;;;;;5034797;28;20173;-78
2023/10/25 00:18:29;;;;;;;76.80;68.30;;;9.40;99.90;;;;;;5035074;28;20177;-78
2023/10/25 00:20:56;;;;;;;68.82;61.20;;;9.40;99.90;;;;;;5035008;28;20166;-78
2023/10/25 00:23:24;;;;;;;70.25;58.30;;;9.30;99.90;;;;;;5034652;28;20605;-78
2023/10/25 00:25:50;;;;;;;79.88;71.45;;;9.40;99.90;;;;;;5034639;28;20173;-78
2023/10/25 00:28:17;;;;;;;78.32;70.15;;;9.40;99.90;;;;;;5034669;28;20169;-78
2023/10/25 00:30:46;;;;;;;80.03;71.70;;;9.40;99.90;;;;;;5016739;28;20240;-78
2023/10/25 00:33:12;;;;;;;85.45;76.72;;;9.40;99.90;;;;;;5034425;28;20343;-78
2023/10/25 00:35:38;;;;;;;79.33;70.90;;;9.30;99.90;;;;;;5034954;28;20170;-78
2023/10/25 00:38:03;;;;;;;61.90;44.03;;;9.30;99.90;;;;;;5034516;28;20451;-78
2023/10/25 00:40:29;;;;;;;64.60;51.67;;;9.30;99.90;;;;;;5034364;28;20531;-78
2023/10/25 00:43:14;;;;;;;63.33;45.27;;;9.30;99.90;;;;;;5034359;28;20181;-78
2023/10/25 00:45:53;;;;;;;62.60;46.72;;;9.30;99.90;;;;;;5034416;28;20173;-78
2023/10/25 00:48:19;;;;;;;68.78;57.03;;;9.20;99.90;;;;;;5034295;28;20149;-78
2023/10/25 00:50:44;;;;;;;76.17;67.90;;;9.20;99.90;;;;;;5034234;28;20176;-78
2023/10/25 00:53:10;;;;;;;81.20;72.70;;;9.20;99.90;;;;;;5034069;28;20209;-78
2023/10/25 00:55:36;;;;;;;81.17;72.80;;;9.10;99.90;;;;;;5016576;28;20162;-78
2023/10/25 00:58:02;;;;;;;69.50;61.03;;;9.10;99.90;;;;;;5034163;28;20162;-78
2023/10/25 01:00:28;;;;;;;68.10;60.33;;;9.10;99.90;;;;;;5033953;28;20246;-78
2023/10/25 01:02:53;;;;;;;77.22;68.93;;;9.20;99.90;;;;;;4999873;28;20432;-78
2023/10/25 01:05:19;;;;;;;67.93;58.57;;;9.20;99.90;;;;;;5033981;28;20570;-78
2023/10/25 01:07:45;;;;;;;72.30;64.53;;;9.20;99.90;;;;;;5033892;28;20162;-78
2023/10/25 01:10:10;;;;;;;70.53;62.27;;;9.20;99.90;;;;;;5034436;28;20578;-78
2023/10/25 01:12:36;;;;;;;69.33;58.67;;;9.20;99.90;;;;;;5033599;28;20227;-78
2023/10/25 01:15:02;;;;;;;91.05;82.22;;;9.20;99.90;;;;;;5034500;28;20698;-78
2023/10/25 01:17:28;;;;;;;86.10;77.20;;;9.20;99.90;;;;;;5034013;28;20245;-78
2023/10/25 01:19:53;;;;;;;69.83;59.43;;;9.20;99.90;;;;;;5033705;28;20195;-77
2023/10/25 01:22:24;;;;;;;68.07;59.07;;;9.20;99.90;;;;;;5033091;28;20273;-77
2023/10/25 01:24:50;;;;;;;79.95;71.38;;;9.20;99.90;;;;;;5015831;28;20639;-77
2023/10/25 01:27:15;;;;;;;66.70;56.33;;;9.30;99.90;;;;;;5033996;28;20174;-78
2023/10/25 01:29:41;;;;;;;68.00;55.57;;;9.30;99.90;;;;;;5033454;28;20166;-78
2023/10/25 01:32:07;;;;;;;70.60;62.57;;;9.30;99.90;;;;;;5033221;28;20194;-78
2023/10/25 01:34:33;;;;;;;66.53;56.83;;;9.30;99.90;;;;;;5033482;28;20308;-77
2023/10/25 01:36:58;;;;;;;75.70;60.53;;;9.40;99.90;;;;;;5033481;28;20405;-78
2023/10/25 01:39:24;;;;;;;66.77;56.43;;;9.40;99.90;;;;;;5033452;28;20166;-78
2023/10/25 01:41:49;;;;;;;65.80;52.47;;;9.30;99.90;;;;;;5033370;28;20166;-78
2023/10/25 01:44:15;;;;;;;73.70;59.87;;;9.30;99.90;;;;;;5033581;28;20276;-78
2023/10/25 01:46:41;;;;;;;68.30;55.90;;;9.20;99.90;;;;;;5033442;28;20170;-77
2023/10/25 01:49:06;;;;;;;67.00;56.60;;;9.20;99.90;;;;;;5033322;28;20219;-77
2023/10/25 01:51:32;;;;;;;72.37;64.50;;;9.20;99.90;;;;;;5033162;28;20193;-78
2023/10/25 01:53:58;;;;;;;67.97;56.23;;;9.20;99.90;;;;;;5033184;28;20182;-78
2023/10/25 01:56:23;;;;;;;67.57;59.30;;;9.30;99.90;;;;;;5033327;28;20603;-78
2023/10/25 01:58:49;;;;;;;65.87;53.30;;;9.30;99.90;;;;;;5033257;28;20224;-78
2023/10/25 02:01:14;;;;;;;75.63;66.60;;;9.30;99.90;;;;;;5033222;28;20242;-78
2023/10/25 02:03:40;;;;;;;65.70;47.00;;;9.30;99.90;;;;;;5033271;28;20273;-77
2023/10/25 02:06:13;;;;;;;71.03;63.33;;;9.30;99.90;;;;;;5033119;28;20216;-78
2023/10/25 02:08:39;;;;;;;69.40;58.88;;;9.30;99.90;;;;;;5033295;28;20176;-77
2023/10/25 02:11:06;;;;;;;67.10;57.33;;;9.30;99.90;;;;;;5015459;28;20698;-78
2023/10/25 02:13:32;;;;;;;70.28;61.30;;;9.30;99.90;;;;;;5032965;28;20490;-78
2023/10/25 02:15:57;;;;;;;78.77;69.93;;;9.30;99.90;;;;;;5015342;28;20216;-77
2023/10/25 02:18:23;;;;;;;68.50;60.13;;;9.20;99.90;;;;;;5033015;28;20161;-77
2023/10/25 02:20:49;;;;;;;68.10;56.07;;;9.20;99.90;;;;;;5032942;28;20161;-77
2023/10/25 02:23:14;;;;;;;86.13;77.43;;;9.10;99.90;;;;;;5033127;28;20550;-78
2023/10/25 02:25:40;;;;;;;91.83;82.57;;;9.10;99.90;;;;;;5032966;28;20170;-77
2023/10/25 02:28:06;;;;;;;84.57;75.60;;;9.10;99.90;;;;;;5015172;28;20174;-78
2023/10/25 02:30:31;;;;;;;71.00;63.33;;;9.10;99.90;;;;;;5015423;28;20181;-77
2023/10/25 02:32:57;;;;;;;80.40;71.67;;;9.00;99.90;;;;;;5033781;28;20710;-78
2023/10/25 02:35:23;;;;;;;81.83;73.17;;;9.10;99.90;;;;;;5036725;28;20719;-78
2023/10/25 02:37:48;;;;;;;89.50;80.60;;;9.10;99.90;;;;;;5036767;28;20162;-78
2023/10/25 02:40:14;;;;;;;88.43;79.37;;;9.10;99.90;;;;;;5036946;28;20166;-78
2023/10/25 02:42:42;;;;;;;77.23;68.10;;;9.10;99.90;;;;;;5036635;28;20671;-78
2023/10/25 02:45:08;;;;;;;82.72;74.10;;;9.10;99.90;;;;;;5036741;28;20538;-78
2023/10/25 02:47:34;;;;;;;79.32;70.13;;;9.10;99.90;;;;;;5036644;28;20220;-77
2023/10/25 02:50:00;;;;;;;83.70;75.00;;;9.10;99.90;;;;;;5036543;28;20166;-78
2023/10/25 02:52:25;;;;;;;73.10;64.77;;;9.10;99.90;;;;;;5018490;28;20224;-78
2023/10/25 02:54:55;;;;;;;70.20;61.80;;;9.10;99.90;;;;;;5018636;28;20166;-78
2023/10/25 02:57:20;;;;;;;70.28;62.08;;;9.10;99.90;;;;;;5036477;28;20166;-78
2023/10/25 02:59:46;;;;;;;81.43;72.90;;;9.10;99.90;;;;;;5036978;28;20539;-78
2023/10/25 03:02:13;;;;;;;65.67;53.83;;;9.00;99.90;;;;;;5036337;28;20205;-78
2023/10/25 03:04:38;;;;;;;77.65;68.18;;;9.00;99.90;;;;;;5018392;28;20180;-78
2023/10/25 03:07:04;;;;;;;74.57;64.67;;;9.00;99.90;;;;;;5036322;28;20162;-78
2023/10/25 03:09:30;;;;;;;79.83;71.50;;;9.00;99.90;;;;;;5036288;28;20169;-78
2023/10/25 03:11:57;;;;;;;71.63;62.73;;;9.00;99.90;;;;;;5019211;28;20197;-78
2023/10/25 03:14:23;;;;;;;75.43;64.47;;;9.00;99.90;;;;;;5036024;28;20684;-78
2023/10/25 03:16:49;;;;;;;77.97;63.67;;;9.00;99.90;;;;;;5036190;28;20165;-78
2023/10/25 03:19:15;;;;;;;70.87;62.90;;;9.00;99.90;;;;;;5036543;28;20570;-78
2023/10/25 03:21:40;;;;;;;82.90;74.17;;;9.10;99.90;;;;;;5035877;28;20427;-78
2023/10/25 03:24:07;;;;;;;72.00;50.57;;;9.10;99.90;;;;;;5035976;28;20193;-78
2023/10/25 03:26:33;;;;;;;67.35;59.13;;;9.10;99.90;;;;;;5036150;28;20512;-78
2023/10/25 03:28:59;;;;;;;66.25;50.67;;;9.10;99.90;;;;;;5035865;28;20169;-78
2023/10/25 03:31:25;;;;;;;66.63;53.97;;;9.00;99.90;;;;;;5035838;28;20170;-78
2023/10/25 03:33:51;;;;;;;65.88;49.08;;;9.00;99.90;;;;;;5036042;28;20686;-78
2023/10/25 03:36:17;;;;;;;64.57;49.47;;;9.00;99.90;;;;;;5036009;28;20177;-78
2023/10/25 03:38:43;;;;;;;71.53;55.23;;;8.90;99.90;;;;;;5036176;28;20162;-78
2023/10/25 03:41:08;;;;;;;65.50;51.50;;;8.90;99.90;;;;;;5035804;28;20582;-78
2023/10/25 03:43:35;;;;;;;63.53;48.27;;;8.80;99.90;;;;;;5035154;28;20614;-78
2023/10/25 03:46:05;;;;;;;65.75;49.47;;;8.80;99.90;;;;;;5035603;28;20173;-78
2023/10/25 03:48:35;;;;;;;65.35;52.85;;;8.70;99.90;;;;;;5035865;28;20535;-78
2023/10/25 03:51:05;;;;;;;67.07;50.53;;;8.70;99.90;;;;;;5035418;28;20169;-78
2023/10/25 03:53:32;;;;;;;69.20;51.95;;;8.70;99.90;;;;;;5035341;28;20225;-78
2023/10/25 03:55:58;;;;;;;70.35;58.42;;;8.70;99.90;;;;;;5035459;28;20224;-78
2023/10/25 03:58:25;;;;;;;65.00;50.73;;;8.70;99.90;;;;;;5035690;28;20623;-78
2023/10/25 04:01:04;;;;;;;74.18;64.20;;;8.70;99.90;;;;;;5035637;28;20173;-78
2023/10/25 04:03:30;;;;;;;64.60;51.17;;;8.70;99.90;;;;;;5035458;28;20232;-78
2023/10/25 04:05:56;;;;;;;77.00;67.80;;;8.80;99.90;;;;;;5035252;28;20535;-78
2023/10/25 04:08:23;;;;;;;65.67;50.77;;;8.70;99.90;;;;;;5035877;28;20189;-78
2023/10/25 04:10:56;;;;;;;83.18;74.78;;;8.70;99.90;;;;;;5035194;28;20410;-78
2023/10/25 04:13:22;;;;;;;70.55;57.00;;;8.70;99.90;;;;;;5035062;28;20197;-78
2023/10/25 04:15:57;;;;;;;78.95;69.75;;;8.60;99.90;;;;;;5017129;28;20174;-78
2023/10/25 04:18:28;;;;;;;66.72;55.38;;;8.60;99.90;;;;;;5017152;28;20161;-78
2023/10/25 04:20:54;;;;;;;81.07;72.63;;;8.60;99.90;;;;;;5035363;28;20158;-78
2023/10/25 04:23:20;;;;;;;74.90;64.28;;;8.60;99.90;;;;;;5034801;28;20264;-78
2023/10/25 04:25:46;;;;;;;81.93;72.40;;;8.60;99.90;;;;;;5034749;28;20304;-78
2023/10/25 04:28:13;;;;;;;77.90;69.47;;;8.60;99.90;;;;;;5034710;28;20162;-78
2023/10/25 04:30:39;;;;;;;81.15;70.32;;;8.60;99.90;;;;;;5016938;28;20174;-78
2023/10/25 04:33:04;;;;;;;86.60;77.80;;;8.60;99.90;;;;;;5034636;28;20696;-78
2023/10/25 04:35:30;;;;;;;71.43;60.00;;;8.60;99.90;;;;;;5034759;28;20253;-78
2023/10/25 04:37:56;;;;;;;74.90;65.57;;;8.60;99.90;;;;;;5034600;28;20169;-78
2023/10/25 04:40:22;;;;;;;71.37;58.50;;;8.60;99.90;;;;;;5034376;28;20444;-78
2023/10/25 04:42:50;;;;;;;65.30;50.60;;;8.60;99.90;;;;;;5034672;28;20236;-78
2023/10/25 04:45:16;;;;;;;80.20;62.15;;;8.50;99.90;;;;;;5034664;28;20534;-78
2023/10/25 04:47:41;;;;;;;64.97;49.78;;;8.50;99.90;;;;;;5034412;28;20170;-78
2023/10/25 04:50:08;;;;;;;74.27;59.27;;;8.50;99.90;;;;;;5034437;28;20170;-78
2023/10/25 04:52:33;;;;;;;67.53;57.22;;;8.50;99.90;;;;;;5034005;28;20205;-78
2023/10/25 04:54:59;;;;;;;75.17;61.77;;;8.40;99.90;;;;;;5034097;28;20525;-78
2023/10/25 04:57:25;;;;;;;65.90;45.13;;;8.40;99.90;;;;;;5033909;28;20643;-78
2023/10/25 04:59:51;;;;;;;64.57;47.20;;;8.40;99.90;;;;;;5034060;28;20219;-78
2023/10/25 05:02:17;;;;;;;62.90;45.72;;;8.40;99.90;;;;;;5034076;28;20250;-78
2023/10/25 05:04:43;;;;;;;62.67;46.40;;;8.50;99.90;;;;;;5034020;28;20292;-78
2023/10/25 05:07:09;;;;;;;68.57;54.53;;;8.40;99.90;;;;;;5034297;28;20645;-78
2023/10/25 05:09:36;;;;;;;65.28;50.45;;;8.40;99.90;;;;;;5016085;28;20169;-78
2023/10/25 05:12:07;;;;;;;64.28;43.67;;;8.40;99.90;;;;;;5033819;28;20701;-78
2023/10/25 05:14:33;;;;;;;72.72;53.85;;;8.40;99.90;;;;;;5034178;28;20138;-78
2023/10/25 05:17:05;;;;;;;65.22;43.55;;;8.30;99.90;;;;;;5034121;28;20174;-78
2023/10/25 05:19:31;;;;;;;65.05;47.67;;;8.40;99.90;;;;;;5034298;28;20240;-78
2023/10/25 05:21:59;;;;;;;73.63;61.97;;;8.40;99.90;;;;;;5034392;28;20241;-78
2023/10/25 05:24:25;;;;;;;74.68;55.72;;;8.40;99.90;;;;;;5033692;28;20486;-78
2023/10/25 05:26:51;;;;;;;74.97;63.08;;;8.30;99.90;;;;;;5015586;28;20608;-78
2023/10/25 05:29:17;;;;;;;64.90;51.27;;;8.30;99.90;;;;;;5033926;28;20193;-78
2023/10/25 05:31:43;;;;;;;69.67;46.70;;;8.30;99.90;;;;;;5033397;28;20448;-77
2023/10/25 05:34:10;;;;;;;72.20;60.65;;;8.30;99.90;;;;;;5015816;28;20190;-77
2023/10/25 05:36:38;;;;;;;78.05;68.88;;;8.30;99.90;;;;;;5033347;28;20236;-78
2023/10/25 05:39:04;;;;;;;75.78;64.25;;;8.40;99.90;;;;;;5015653;28;20551;-78
2023/10/25 05:41:30;;;;;;;100.20;90.70;;;8.40;99.90;;;;;;5033894;28;20166;-78
2023/10/25 05:44:14;;;;;;;88.07;78.93;;;8.40;99.90;;;;;;5033284;28;20738;-78
2023/10/25 05:46:40;;;;;;;94.90;84.97;;;8.50;99.90;;;;;;5033330;28;20930;-77
2023/10/25 05:49:06;;;;;;;83.70;74.67;;;8.50;99.90;;;;;;5033219;28;20162;-78
2023/10/25 05:51:32;;;;;;;83.70;72.95;;;8.50;99.90;;;;;;5032914;28;20411;-78
2023/10/25 05:53:59;;;;;;;82.85;74.38;;;8.60;99.90;;;;;;5033271;28;20186;-77
2023/10/25 05:56:26;;;;;;;96.80;87.43;;;8.60;99.90;;;;;;5033266;28;20527;-78
2023/10/25 05:58:58;;;;;;;87.95;78.80;;;8.70;99.90;;;;;;5033157;28;20158;-78
2023/10/25 06:01:38;;;;;;;92.40;83.10;;;8.70;99.90;;;;;;5033687;28;20173;-78
2023/10/25 06:04:05;;;;;;;100.00;90.22;;;8.70;99.90;;;;;;5033179;28;20716;-78
2023/10/25 06:06:33;;;;;;;89.40;80.10;;;8.70;99.90;;;;;;5033725;28;20239;-78
2023/10/25 06:08:59;;;;;;;83.13;74.07;;;8.70;99.90;;;;;;5037934;28;20514;-77
2023/10/25 06:11:25;;;;;;;103.60;93.70;;;8.70;99.90;;;;;;5037417;28;20166;-78
2023/10/25 06:13:50;;;;;;;94.85;85.30;;;8.70;99.90;;;;;;5037551;28;20436;-77
2023/10/25 06:16:16;;;;;;;90.80;81.50;;;8.70;99.90;;;;;;5037199;28;20208;-77
2023/10/25 06:18:42;;;;;;;104.23;93.97;;;8.70;99.90;;;;;;5037201;28;20430;-77
2023/10/25 06:21:08;;;;;;;110.50;100.30;;;8.70;99.90;;;;;;5036909;28;20165;-77
2023/10/25 06:23:36;;;;;;;118.97;108.60;;;8.70;99.90;;;;;;5037162;28;20190;-77
2023/10/25 06:26:03;;;;;;;110.72;100.55;;;8.80;99.90;;;;;;5037155;28;20166;-77
2023/10/25 06:28:29;;;;;;;108.68;98.90;;;8.80;99.90;;;;;;5036822;28;20190;-77
2023/10/25 06:30:55;;;;;;;105.85;96.40;;;8.80;99.90;;;;;;5036851;28;20185;-78
2023/10/25 06:33:21;;;;;;;121.83;111.00;;;8.90;99.90;;;;;;5036681;28;20198;-77
2023/10/25 06:35:47;;;;;;;95.00;85.70;;;8.90;99.90;;;;;;5036989;28;20165;-77
2023/10/25 06:38:13;;;;;;;129.52;118.53;;;8.90;99.90;;;;;;5036713;28;20165;-77
2023/10/25 06:40:39;;;;;;;144.13;132.73;;;8.90;99.90;;;;;;5036426;28;20631;-77
2023/10/25 06:43:05;;;;;;;118.60;108.77;;;8.90;99.90;;;;;;5018574;28;20193;-77
2023/10/25 06:45:31;;;;;;;111.63;101.43;;;8.90;99.90;;;;;;5037023;28;20410;-77
2023/10/25 06:47:57;;;;;;;101.90;92.65;;;8.90;99.90;;;;;;5036446;28;20411;-77
2023/10/25 06:50:25;;;;;;;114.23;104.60;;;8.90;99.90;;;;;;5036654;28;20527;-77
2023/10/25 06:52:51;;;;;;;102.65;93.40;;;8.90;99.90;;;;;;5036595;28;20464;-77
2023/10/25 06:55:17;;;;;;;98.45;89.22;;;9.00;99.90;;;;;;5037115;28;20239;-77
2023/10/25 06:57:43;;;;;;;118.13;108.03;;;9.00;99.90;;;;;;5036220;28;20182;-77
2023/10/25 07:00:09;;;;;;;107.63;97.80;;;9.00;99.90;;;;;;5036276;28;20928;-77
2023/10/25 07:02:47;;;;;;;120.22;110.32;;;9.00;99.90;;;;;;5036060;28;21024;-77
2023/10/25 07:05:13;;;;;;;108.65;98.95;;;9.10;99.90;;;;;;5036416;28;20568;-77
2023/10/25 07:07:41;;;;;;;113.18;103.43;;;9.10;99.90;;;;;;5018289;28;20165;-77
2023/10/25 07:10:11;;;;;;;127.45;116.93;;;9.20;99.90;;;;;;5036394;28;20162;-77
2023/10/25 07:12:37;;;;;;;107.82;98.32;;;9.30;99.90;;;;;;5035740;28;20206;-77
2023/10/25 07:15:03;;;;;;;118.90;108.90;;;9.30;99.90;;;;;;5036185;28;20237;-77
2023/10/25 07:17:29;;;;;;;122.55;112.47;;;9.40;99.90;;;;;;5036190;28;20401;-77
2023/10/25 07:19:54;;;;;;;121.20;110.90;;;9.40;99.90;;;;;;5035291;28;20249;-77
2023/10/25 07:22:20;;;;;;;125.03;114.87;;;9.50;99.90;;;;;;5035671;28;20504;-77
2023/10/25 07:24:46;;;;;;;122.67;112.60;;;9.60;99.90;;;;;;5035776;28;20412;-77
2023/10/25 07:27:12;;;;;;;110.10;100.53;;;9.60;99.90;;;;;;5035787;28;20628;-77
2023/10/25 07:29:39;;;;;;;118.37;108.30;;;9.60;99.90;;;;;;5035978;28;20176;-77
2023/10/25 07:32:05;;;;;;;109.45;99.75;;;9.70;99.90;;;;;;5035736;28;20194;-77
2023/10/25 07:34:34;;;;;;;99.38;89.70;;;9.80;99.90;;;;;;5035620;28;20214;-77
2023/10/25 07:36:59;;;;;;;112.75;102.75;;;9.80;99.90;;;;;;5035860;28;20170;-77
2023/10/25 07:39:25;;;;;;;87.63;78.93;;;9.70;99.90;;;;;;5035549;28;20745;-77
2023/10/25 07:41:51;;;;;;;106.93;97.60;;;9.80;99.90;;;;;;5017613;28;20177;-77
2023/10/25 07:44:17;;;;;;;114.20;104.43;;;9.80;99.90;;;;;;5017629;28;20936;-77
2023/10/25 07:46:42;;;;;;;99.27;89.97;;;9.80;99.90;;;;;;5035788;28;20163;-77
2023/10/25 07:49:13;;;;;;;96.60;87.20;;;9.90;99.90;;;;;;5035715;28;20197;-77
2023/10/25 07:51:45;;;;;;;105.93;96.43;;;9.90;99.90;;;;;;5017323;28;20255;-77
2023/10/25 07:54:11;;;;;;;104.05;94.82;;;10.00;99.90;;;;;;5035475;28;20182;-77
2023/10/25 07:56:39;;;;;;;94.17;84.90;;;10.10;99.90;;;;;;5035218;28;20162;-77
2023/10/25 07:59:05;;;;;;;119.53;109.38;;;10.10;99.90;;;;;;5035230;28;20166;-77
2023/10/25 08:01:31;;;;;;;111.77;102.13;;;10.10;99.90;;;;;;5035069;28;20657;-77
2023/10/25 08:03:57;;;;;;;107.53;98.03;;;10.20;99.90;;;;;;5017313;28;20269;-77
2023/10/25 08:06:23;;;;;;;105.95;96.18;;;10.20;99.90;;;;;;5035151;28;20506;-77
2023/10/25 08:08:49;;;;;;;108.67;99.13;;;10.30;99.90;;;;;;5035030;28;20217;-77
2023/10/25 08:11:15;;;;;;;121.05;111.22;;;10.30;99.90;;;;;;5035079;28;20162;-77
2023/10/25 08:13:42;;;;;;;112.45;102.90;;;10.30;99.90;;;;;;5034793;28;20236;-77
2023/10/25 08:16:08;;;;;;;109.15;99.80;;;10.40;99.90;;;;;;5035207;28;20728;-77
2023/10/25 08:18:35;;;;;;;101.75;92.43;;;10.40;99.90;;;;;;5035152;28;20166;-77
2023/10/25 08:21:01;;;;;;;99.32;90.03;;;10.50;99.90;;;;;;5034796;28;20177;-77
2023/10/25 08:23:28;;;;;;;96.65;87.50;;;10.50;99.90;;;;;;5017024;28;20280;-77
2023/10/25 08:26:00;;;;;;;101.10;91.68;;;10.50;99.90;;;;;;5034650;28;20700;-77
2023/10/25 08:28:26;;;;;;;100.05;91.20;;;10.60;99.90;;;;;;5034691;28;20619;-77
2023/10/25 08:30:52;;;;;;;101.93;93.00;;;10.50;99.90;;;;;;5034661;28;20176;-77
2023/10/25 08:33:17;;;;;;;102.73;93.80;;;10.50;99.90;;;;;;5034478;28;20678;-77
2023/10/25 08:35:46;;;;;;;93.63;84.83;;;10.40;99.90;;;;;;5034492;28;20165;-77
2023/10/25 08:38:11;;;;;;;112.70;102.85;;;10.40;99.90;;;;;;5034664;28;20523;-77
2023/10/25 08:40:40;;;;;;;100.03;90.87;;;10.40;99.90;;;;;;5034844;28;20150;-77
2023/10/25 08:43:07;;;;;;;104.07;94.60;;;10.40;99.90;;;;;;5034598;28;20260;-77
2023/10/25 08:45:36;;;;;;;116.60;106.65;;;10.40;99.90;;;;;;5034581;28;20178;-76
2023/10/25 08:48:03;;;;;;;104.78;95.85;;;10.40;99.90;;;;;;5034829;28;20170;-76
2023/10/25 08:50:31;;;;;;;118.20;107.88;;;10.40;99.90;;;;;;5016494;28;20235;-76
2023/10/25 08:52:57;;;;;;;94.28;85.47;;;10.40;99.90;;;;;;5034110;28;20193;-76
2023/10/25 08:55:23;;;;;;;113.00;103.60;;;10.30;99.90;;;;;;5034086;28;20162;-76
2023/10/25 08:57:55;;;;;;;96.53;87.47;;;10.30;99.90;;;;;;5016378;28;20644;-77
2023/10/25 09:00:22;;;;;;;104.07;94.85;;;10.30;99.90;;;;;;5034035;28;20158;-76
2023/10/25 09:02:49;;;;;;;98.93;89.93;;;10.40;99.90;;;;;;5033960;28;20212;-76
2023/10/25 09:05:15;;;;;;;106.57;97.30;;;10.40;99.90;;;;;;5016310;28;20170;-76
2023/10/25 09:07:40;;;;;;;122.30;111.47;;;10.50;99.90;;;;;;5016658;28;20181;-77
2023/10/25 09:10:22;;;;;;;105.20;95.90;;;10.50;99.90;;;;;;5033816;28;20412;-77
2023/10/25 09:12:49;;;;;;;117.55;107.43;;;10.50;99.90;;;;;;5016025;28;20456;-77
2023/10/25 09:15:27;;;;;;;115.32;105.63;;;10.50;99.90;;;;;;5033754;28;20212;-77
2023/10/25 09:17:53;;;;;;;114.03;103.97;;;10.60;99.90;;;;;;5033978;28;20146;-76
2023/10/25 09:20:26;;;;;;;89.97;81.33;;;10.50;99.90;;;;;;5015992;28;20184;-77
2023/10/25 09:23:11;;;;;;;109.05;99.75;;;10.60;99.90;;;;;;5033843;28;20532;-77
2023/10/25 09:25:37;;;;;;;119.10;108.82;;;10.60;99.90;;;;;;5033565;28;20162;-77
2023/10/25 09:28:29;;;;;;;112.07;102.37;;;10.60;99.90;;;;;;5033523;28;20166;-77
2023/10/25 09:31:00;;;;;;;135.43;124.63;;;10.60;99.90;;;;;;5033497;28;20476;-77
2023/10/25 09:33:30;;;;;;;117.72;108.15;;;10.70;99.90;;;;;;5015607;28;20216;-77
2023/10/25 09:35:57;;;;;;;137.20;125.78;;;10.70;99.90;;;;;;5033442;28;20166;-77
2023/10/25 09:38:24;;;;;;;130.65;120.28;;;10.60;99.90;;;;;;5033644;28;20499;-77
2023/10/25 09:40:50;;;;;;;146.25;135.18;;;10.70;99.90;;;;;;5033404;28;20162;-77
2023/10/25 09:43:21;;;;;;;131.27;120.95;;;10.70;99.90;;;;;;5032958;28;20190;-77
2023/10/25 09:45:57;;;;;;;115.55;105.93;;;10.70;99.90;;;;;;5033340;28;20268;-77
2023/10/25 09:48:23;;;;;;;121.18;110.70;;;10.80;99.90;;;;;;5033593;28;20157;-77
2023/10/25 09:51:08;;;;;;;117.03;106.90;;;10.80;99.90;;;;;;5033544;28;20173;-77
2023/10/25 09:53:43;;;;;;;111.07;101.47;;;10.80;99.90;;;;;;5033087;28;20201;-77
2023/10/25 09:56:09;;;;;;;98.95;89.93;;;10.80;99.90;;;;;;5033777;28;20148;-77
2023/10/25 09:58:36;;;;;;;97.80;88.35;;;10.80;99.90;;;;;;5033469;28;20166;-77
2023/10/25 10:01:03;;;;;;;94.93;85.75;;;10.80;99.90;;;;;;5033173;28;20643;-76
2023/10/25 10:04:05;;;;;;;93.18;84.50;;;10.80;99.90;;;;;;5033406;28;20265;-76
2023/10/25 10:06:44;;;;;;;95.50;86.25;;;10.80;99.90;;;;;;4953145;29;20180;-76
2023/10/25 10:09:19;;;;;;;123.97;113.30;;;10.70;99.90;;;;;;5024423;28;20279;-76
2023/10/25 10:11:53;;;;;;;98.53;89.07;;;10.80;99.90;;;;;;5032973;28;20174;-77
2023/10/25 10:14:33;;;;;;;95.32;86.18;;;10.70;99.90;;;;;;5033529;28;20561;-76
2023/10/25 10:17:04;;;;;;;113.68;103.60;;;10.70;99.90;;;;;;5033095;28;20634;-76
2023/10/25 10:19:31;;;;;;;104.03;95.07;;;10.60;99.90;;;;;;5033186;28;20174;-76
2023/10/25 10:22:16;;;;;;;128.65;118.13;;;10.70;99.90;;;;;;5032985;28;20169;-76
2023/10/25 10:24:53;;;;;;;108.28;99.00;;;10.60;99.90;;;;;;5032947;28;20638;-76
2023/10/25 10:27:41;;;;;;;109.80;100.40;;;10.60;99.90;;;;;;5015145;28;20173;-76
2023/10/25 10:30:30;;;;;;;100.38;91.40;;;10.50;99.90;;;;;;5032923;28;20162;-76
2023/10/25 10:32:56;;;;;;;123.88;113.38;;;10.60;99.90;;;;;;5032560;28;20206;-76
2023/10/25 10:35:23;;;;;;;120.60;110.85;;;10.50;99.90;;;;;;5032819;28;20162;-76
2023/10/25 10:37:56;;;;;;;110.43;100.53;;;10.60;99.90;;;;;;5032738;28;20245;-76
2023/10/25 10:40:22;;;;;;;115.72;105.70;;;10.60;99.90;;;;;;5032996;28;20590;-76
2023/10/25 10:42:48;;;;;;;124.43;113.73;;;10.50;99.90;;;;;;5033221;28;20221;-76
2023/10/25 10:45:19;;;;;;;127.20;117.20;;;10.60;99.90;;;;;;5032654;28;20204;-76
2023/10/25 10:48:21;;;;;;;123.72;113.65;;;10.50;99.90;;;;;;5032921;28;20420;-76
2023/10/25 10:50:49;;;;;;;123.53;113.50;;;10.50;99.90;;;;;;5032946;28;20523;-76
2023/10/25 10:53:15;;;;;;;137.10;126.65;;;10.50;99.90;;;;;;5032417;28;20568;-76
2023/10/25 10:55:41;;;;;;;121.67;111.77;;;10.50;99.90;;;;;;5036235;28;20154;-76
2023/10/25 10:58:07;;;;;;;140.70;129.48;;;10.40;99.90;;;;;;5036255;28;20400;-76
2023/10/25 11:00:33;;;;;;;153.50;141.85;;;10.40;99.90;;;;;;5036793;28;20166;-76
2023/10/25 11:03:03;;;;;;;165.45;153.43;;;10.50;99.90;;;;;;5036461;28;20269;-76
2023/10/25 11:05:29;;;;;;;134.73;124.32;;;10.50;99.90;;;;;;5036204;28;20162;-76
2023/10/25 11:07:55;;;;;;;185.20;172.38;;;10.50;99.90;;;;;;5036405;28;20169;-76
2023/10/25 11:10:21;;;;;;;172.30;160.63;;;10.50;99.90;;;;;;5036228;28;20662;-76
2023/10/25 11:12:47;;;;;;;155.80;144.10;;;10.50;99.90;;;;;;5035925;28;20479;-76
2023/10/25 11:15:13;;;;;;;155.10;143.87;;;10.50;99.90;;;;;;5036543;28;20158;-76
2023/10/25 11:17:40;;;;;;;152.80;141.33;;;10.50;99.90;;;;;;5035971;28;20761;-76
2023/10/25 11:20:06;;;;;;;162.57;151.05;;;10.60;99.90;;;;;;5035917;28;20547;-76
2023/10/25 11:22:33;;;;;;;170.00;157.82;;;10.50;99.90;;;;;;5036057;28;20523;-76
2023/10/25 11:24:59;;;;;;;207.07;193.13;;;10.60;99.90;;;;;;5018094;28;20169;-76
2023/10/25 11:27:32;;;;;;;198.05;184.55;;;10.60;99.90;;;;;;5036010;28;20511;-76
2023/10/25 11:30:00;;;;;;;192.65;179.60;;;10.60;99.90;;;;;;5036269;28;20634;-76
2023/10/25 11:32:28;;;;;;;164.75;153.10;;;10.60;99.90;;;;;;5035805;28;20228;-76
2023/10/25 11:35:07;;;;;;;177.57;165.38;;;10.60;99.90;;;;;;5035667;28;20158;-76
2023/10/25 11:37:46;;;;;;;164.75;151.18;;;10.60;99.90;;;;;;5018715;28;20181;-76
2023/10/25 11:40:11;;;;;;;176.60;164.40;;;10.70;99.90;;;;;;5035797;28;20160;-76
2023/10/25 11:42:37;;;;;;;194.13;181.53;;;10.70;99.90;;;;;;5035452;28;20189;-77
2023/10/25 11:45:06;;;;;;;209.53;195.80;;;10.70;99.90;;;;;;5035466;28;20412;-76
2023/10/25 11:47:32;;;;;;;188.48;175.75;;;10.70;99.90;;;;;;5017669;28;20177;-76
2023/10/25 11:50:03;;;;;;;192.97;179.93;;;10.70;99.90;;;;;;5035382;28;20642;-76
2023/10/25 11:52:30;;;;;;;166.93;155.15;;;10.80;99.90;;;;;;5035044;28;21019;-77
2023/10/25 11:54:57;;;;;;;179.38;166.85;;;10.70;99.90;;;;;;5035353;28;20174;-77
2023/10/25 11:57:24;;;;;;;180.52;168.00;;;10.80;99.90;;;;;;5035443;28;20174;-76
2023/10/25 11:59:50;;;;;;;172.27;160.25;;;10.80;99.90;;;;;;5035147;28;20162;-76
2023/10/25 12:02:21;;;;;;;173.77;161.75;;;10.80;99.90;;;;;;5035067;28;20170;-76
2023/10/25 12:04:48;;;;;;;162.85;150.73;;;10.80;99.90;;;;;;5017062;28;20568;-77
2023/10/25 12:07:14;;;;;;;169.48;156.98;;;10.80;99.90;;;;;;5035530;28;20631;-77
2023/10/25 12:09:41;;;;;;;179.60;166.80;;;10.80;99.90;;;;;;5035042;28;20185;-77
2023/10/25 12:12:07;;;;;;;212.57;198.75;;;10.80;99.90;;;;;;5034954;28;20447;-77
2023/10/25 12:14:33;;;;;;;196.43;183.25;;;10.80;99.90;;;;;;5017592;28;20166;-77
2023/10/25 12:16:59;;;;;;;176.30;163.23;;;10.80;99.90;;;;;;5035202;28;20169;-77
2023/10/25 12:19:25;;;;;;;184.83;172.47;;;10.80;99.90;;;;;;5035102;28;20166;-77
2023/10/25 12:21:56;;;;;;;201.80;188.87;;;10.90;99.90;;;;;;5034835;28;20781;-77
2023/10/25 12:24:27;;;;;;;185.30;172.68;;;10.90;99.90;;;;;;5035072;28;20767;-77
2023/10/25 12:26:56;;;;;;;196.80;183.90;;;10.90;99.90;;;;;;5016930;28;20602;-77
2023/10/25 12:29:25;;;;;;;225.38;210.98;;;10.90;99.90;;;;;;5017227;28;20166;-76